East Barre, Vermont
Current Conditions -  °F | °C
As of 9:51 AM on Thursday 23 Oct 2014 (Local Time) from KMPV Reporting Station
Overcast Overcast  
Wind Chill: 39°   Ceiling: 1300
Heat Index: 44°   Visibility: 10mi
Dew Point: 40°   Wind: 10mph
Humidity: 85%   Direction: 360°N
Pressure: 29.94"   Gusts: NA
Location:  44.16°N, 72.45°W
Report Text: KMPV 231351Z AUTO 36009KT 10SM OVC013 07/04 A2994 RMK AO2 RAB07E12 SLP147 P0000 T00670044
Loading
Personal Weather Stations






























Interactive Weather Map
Tropical Storm Tracking
New forecast layout! Learn more

10-Day Weather Forecast

Advertisements
Track Severe Weather on mobile